Point Farm, Vermont
Current Conditions -  °F | °C
As of 11:53 AM on Thursday 30 Oct 2014 (Local Time) from KPBG Reporting Station
Clear Clear  
Wind Chill: 50°   Ceiling: Unl
Heat Index: 50°   Visibility: 10mi
Dew Point: 33°   Wind: 6mph
Humidity: 52%   Direction: 260°W
Pressure: 29.97"   Gusts: NA
Location:  44.717°N, 73.3067°W
Report Text: KPBG 301553Z AUTO 26005KT 10SM CLR 10/01 A2997 RMK AO2 SLP150 T01000006
Loading
Personal Weather Stations






























Interactive Weather Map
Tropical Storm Tracking
New forecast layout! Learn more

10-Day Weather Forecast

Advertisements
Track Severe Weather on mobile